Time;durP1;ratioP1;P1;durP2;ratioP2;P2;SDS_P1;SDS_P2;PMS_P1;PMS_P2;Temp;Humidity;BMP_temperature;BMP_pressure;BME280_temperature;BME280_humidity;BME280_pressure;Samples;Min_cycle;Max_cycle;Signal;HPM_P1;HPM_P2
2022/08/03 00:02:02;;;;;;;2.78;1.55;;;23.80;49.20;;;;;;2327937;54;20956;-72
2022/08/03 00:04:29;;;;;;;2.75;1.35;;;23.80;49.40;;;;;;2343860;54;20964;-74
2022/08/03 00:06:55;;;;;;;3.15;1.48;;;23.80;49.40;;;;;;2338421;54;21123;-71
2022/08/03 00:09:21;;;;;;;3.10;1.37;;;23.80;49.40;;;;;;2344885;55;21699;-74
2022/08/03 00:11:48;;;;;;;2.50;1.25;;;23.70;49.40;;;;;;2338517;55;20976;-71
2022/08/03 00:14:14;;;;;;;2.65;1.20;;;23.70;49.40;;;;;;2322151;54;21041;-73
2022/08/03 00:16:41;;;;;;;3.45;1.80;;;23.70;49.40;;;;;;2349040;53;20944;-71
2022/08/03 00:19:07;;;;;;;3.60;1.50;;;23.70;49.50;;;;;;2336636;54;21012;-71
2022/08/03 00:21:34;;;;;;;2.45;1.20;;;23.70;50.20;;;;;;2343956;55;20924;-71
2022/08/03 00:24:01;;;;;;;2.97;1.37;;;23.60;49.50;;;;;;2321143;54;20950;-74
2022/08/03 00:26:28;;;;;;;2.65;1.20;;;23.60;49.60;;;;;;2342719;54;21004;-71
2022/08/03 00:28:55;;;;;;;2.50;1.25;;;23.60;49.60;;;;;;2338038;55;21088;-71
2022/08/03 00:31:21;;;;;;;2.58;1.40;;;23.50;49.60;;;;;;2344226;54;21004;-71
2022/08/03 00:37:28;;;;;;;2.58;1.17;;;23.50;50.30;;;;;;2590961;53;21001;-74
2022/08/03 00:39:55;;;;;;;3.03;1.40;;;23.50;49.70;;;;;;2342625;54;20992;-71
2022/08/03 00:42:22;;;;;;;2.80;1.27;;;23.40;49.80;;;;;;2591330;53;20989;-70
2022/08/03 00:44:52;;;;;;;2.60;1.40;;;23.40;49.90;;;;;;2344023;54;21008;-74
2022/08/03 00:47:18;;;;;;;2.40;1.08;;;23.40;50.00;;;;;;2336218;54;21036;-71
2022/08/03 00:49:45;;;;;;;3.20;1.25;;;23.40;49.90;;;;;;2325632;54;20981;-71
2022/08/03 00:52:12;;;;;;;2.30;1.20;;;23.40;50.00;;;;;;2323847;54;21012;-71
2022/08/03 00:54:39;;;;;;;3.60;1.23;;;23.30;50.00;;;;;;2323257;54;20925;-71
2022/08/03 00:57:06;;;;;;;2.05;1.00;;;23.30;50.00;;;;;;2445606;54;20948;-71
2022/08/03 00:59:33;;;;;;;2.80;1.37;;;23.30;50.00;;;;;;2325547;54;20933;-71
2022/08/03 01:02:00;;;;;;;2.58;1.17;;;23.30;50.10;;;;;;2437837;53;20924;-72
2022/08/03 01:04:26;;;;;;;3.22;1.27;;;23.20;50.00;;;;;;2328406;55;21545;-71
2022/08/03 01:09:51;;;;;;;2.17;1.15;;;23.20;50.10;;;;;;2552027;54;20901;-71
2022/08/03 01:12:31;;;;;;;2.20;1.12;;;23.20;50.30;;;;;;2336842;54;21000;-71
2022/08/03 01:15:37;;;;;;;2.15;1.02;;;23.20;50.00;;;;;;2321795;54;21033;-72
2022/08/03 01:18:28;;;;;;;2.20;1.20;;;23.10;50.40;;;;;;2320469;54;20897;-71
2022/08/03 01:20:56;;;;;;;2.10;1.10;;;23.10;50.70;;;;;;2337163;54;20997;-72
2022/08/03 01:23:55;;;;;;;2.67;1.17;;;23.00;50.30;;;;;;2333839;55;20996;-70
2022/08/03 01:39:38;;;;;;;2.40;1.20;;;23.00;50.80;;;;;;2585627;53;22158;-73
2022/08/03 01:42:06;;;;;;;1.98;0.80;;;22.90;50.00;;;;;;2315077;54;20987;-70
2022/08/03 01:44:37;;;;;;;1.98;0.90;;;22.90;49.90;;;;;;2454731;53;21447;-71
2022/08/03 01:47:06;;;;;;;2.23;1.13;;;22.80;50.20;;;;;;2319437;55;20974;-71
2022/08/03 01:49:35;;;;;;;2.10;1.12;;;22.80;51.00;;;;;;2409655;53;21056;-71
2022/08/03 01:52:04;;;;;;;1.90;0.80;;;22.70;50.40;;;;;;2303724;54;20962;-74
2022/08/03 01:54:36;;;;;;;3.00;1.30;;;22.70;50.50;;;;;;2366231;54;21136;-70
2022/08/03 01:57:04;;;;;;;2.30;1.20;;;22.70;50.70;;;;;;2319741;54;21062;-71
2022/08/03 01:59:32;;;;;;;2.80;1.20;;;22.70;50.70;;;;;;2330845;54;20947;-71
2022/08/03 02:01:58;;;;;;;3.05;1.37;;;22.60;50.70;;;;;;2577190;53;20957;-71
2022/08/03 02:04:47;;;;;;;2.80;1.58;;;22.60;50.90;;;;;;2338854;55;21748;-71
2022/08/03 02:07:28;;;;;;;2.72;1.30;;;22.60;51.60;;;;;;2343653;54;20977;-71
2022/08/03 02:09:55;;;;;;;2.97;1.45;;;22.60;51.50;;;;;;2375610;53;21100;-71
2022/08/03 02:16:02;;;;;;;3.08;1.40;;;22.60;51.50;;;;;;2375989;53;21773;-72
2022/08/03 02:18:31;;;;;;;2.45;1.10;;;22.50;51.30;;;;;;2591449;53;20934;-70
2022/08/03 02:21:03;;;;;;;2.20;1.08;;;22.50;51.30;;;;;;2591374;53;21061;-71
2022/08/03 02:23:30;;;;;;;2.58;1.20;;;22.50;51.50;;;;;;2343937;54;20950;-71
2022/08/03 02:25:57;;;;;;;2.95;1.30;;;22.50;51.40;;;;;;2420145;53;20977;-70
2022/08/03 02:28:42;;;;;;;2.72;1.30;;;22.50;51.40;;;;;;2342966;55;20933;-71
2022/08/03 02:31:57;;;;;;;2.90;1.40;;;22.50;51.80;;;;;;2590469;53;20974;-70
2022/08/03 02:34:25;;;;;;;2.72;1.40;;;22.50;51.90;;;;;;2347335;54;20934;-70
2022/08/03 02:36:52;;;;;;;2.40;1.25;;;22.40;51.30;;;;;;2563628;53;21828;-71
2022/08/03 02:39:19;;;;;;;2.60;1.40;;;22.40;51.40;;;;;;2344446;54;20974;-71
2022/08/03 02:41:49;;;;;;;3.22;1.52;;;22.40;51.40;;;;;;2364873;54;20985;-71
2022/08/03 02:44:16;;;;;;;3.00;1.60;;;22.40;51.50;;;;;;2325608;54;20943;-71
2022/08/03 02:46:45;;;;;;;3.33;1.60;;;22.30;51.50;;;;;;2343627;54;21451;-71
2022/08/03 02:49:12;;;;;;;2.60;1.33;;;22.30;51.60;;;;;;2565335;53;21047;-71
2022/08/03 02:51:39;;;;;;;2.80;1.30;;;22.30;51.70;;;;;;2482539;53;21023;-71
2022/08/03 02:54:05;;;;;;;2.33;1.30;;;22.30;51.80;;;;;;2338829;54;20984;-70
2022/08/03 03:00:00;;;;;;;2.37;1.10;;;22.20;52.10;;;;;;2428267;53;21411;-71
2022/08/03 03:02:26;;;;;;;2.50;1.20;;;22.20;51.60;;;;;;2589555;53;20958;-71
2022/08/03 03:05:19;;;;;;;2.80;1.42;;;22.20;51.80;;;;;;2339014;55;20937;-73
2022/08/03 03:07:45;;;;;;;2.80;1.42;;;22.20;52.20;;;;;;2345920;54;20926;-74
2022/08/03 03:10:30;;;;;;;2.87;1.60;;;22.20;51.90;;;;;;2344524;54;21011;-71
2022/08/03 03:12:57;;;;;;;3.08;1.50;;;22.10;52.30;;;;;;2312244;54;21114;-73
2022/08/03 03:18:50;;;;;;;2.67;1.33;;;22.10;52.30;;;;;;2313867;53;20947;-70
2022/08/03 03:21:17;;;;;;;2.90;1.50;;;22.10;52.00;;;;;;2336560;53;21945;-71
2022/08/03 03:23:44;;;;;;;2.70;1.45;;;22.10;52.10;;;;;;2568953;53;20929;-74
2022/08/03 03:26:50;;;;;;;2.45;1.45;;;22.10;52.10;;;;;;2579211;53;20949;-71
2022/08/03 03:29:16;;;;;;;2.90;1.40;;;22.00;52.80;;;;;;2335996;54;21168;-71
2022/08/03 03:31:43;;;;;;;2.40;1.27;;;22.00;52.20;;;;;;2343812;54;20984;-71
2022/08/03 03:34:09;;;;;;;3.12;1.50;;;22.00;52.30;;;;;;2337774;55;20992;-71
2022/08/03 03:36:35;;;;;;;2.72;1.30;;;22.00;52.30;;;;;;2557971;53;21000;-71
2022/08/03 03:39:02;;;;;;;2.30;1.20;;;22.00;52.30;;;;;;2328708;54;20937;-71
2022/08/03 03:41:29;;;;;;;2.55;1.33;;;21.90;52.20;;;;;;2330402;54;20937;-71
2022/08/03 03:44:28;;;;;;;2.70;1.42;;;21.90;52.20;;;;;;2502627;53;20917;-71
2022/08/03 03:46:56;;;;;;;3.25;1.50;;;21.90;52.60;;;;;;2319384;54;21548;-71
2022/08/03 03:49:22;;;;;;;2.87;1.50;;;21.90;52.50;;;;;;2322256;54;20964;-74
2022/08/03 03:51:53;;;;;;;2.60;1.45;;;21.90;52.50;;;;;;2436683;53;21394;-70
2022/08/03 03:54:56;;;;;;;2.55;1.33;;;21.90;52.60;;;;;;2339465;54;20948;-72
2022/08/03 03:57:35;;;;;;;2.35;1.25;;;21.90;53.10;;;;;;2344067;54;20924;-74
2022/08/03 04:00:02;;;;;;;2.30;1.10;;;21.80;52.70;;;;;;2317613;54;20977;-71
2022/08/03 04:02:34;;;;;;;2.80;1.48;;;21.80;52.50;;;;;;2340808;55;21762;-74
2022/08/03 04:13:56;;;;;;;3.37;1.60;;;21.80;52.40;;;;;;2514762;53;21482;-71
2022/08/03 04:16:26;;;;;;;2.75;1.35;;;21.80;52.80;;;;;;2343989;54;21008;-70
2022/08/03 04:18:58;;;;;;;2.67;1.30;;;21.70;52.50;;;;;;2584588;53;20996;-72
2022/08/03 04:21:25;;;;;;;2.20;1.10;;;21.70;52.70;;;;;;2577370;53;20957;-73
2022/08/03 04:23:54;;;;;;;2.75;1.37;;;21.70;52.70;;;;;;2338950;55;20924;-71
2022/08/03 04:26:21;;;;;;;2.83;1.27;;;21.70;52.80;;;;;;2341708;55;21056;-75
2022/08/03 04:28:49;;;;;;;3.83;1.75;;;21.70;52.80;;;;;;2398459;53;20976;-72
2022/08/03 04:31:16;;;;;;;2.70;1.58;;;21.60;52.80;;;;;;2338318;55;21020;-70
2022/08/03 04:33:43;;;;;;;3.53;1.60;;;21.60;52.80;;;;;;2436033;53;21732;-72
2022/08/03 04:36:30;;;;;;;3.53;1.80;;;21.60;52.80;;;;;;2383690;53;22081;-72
2022/08/03 04:44:02;;;;;;;3.12;1.50;;;21.60;53.40;;;;;;2339999;55;20985;-70
2022/08/03 04:46:31;;;;;;;2.28;1.15;;;21.60;53.10;;;;;;2344439;54;20932;-69
2022/08/03 04:49:00;;;;;;;3.10;1.33;;;21.60;53.00;;;;;;2444992;54;21053;-71
2022/08/03 04:51:27;;;;;;;2.58;0.88;;;21.60;53.20;;;;;;2341432;54;20960;-72
2022/08/03 04:53:53;;;;;;;2.55;1.50;;;21.60;53.20;;;;;;2433772;53;20945;-73
2022/08/03 04:56:20;;;;;;;2.60;1.30;;;21.60;53.30;;;;;;2325394;54;21056;-73
2022/08/03 04:58:46;;;;;;;2.58;1.35;;;21.60;53.30;;;;;;2322684;54;21213;-71
2022/08/03 05:01:15;;;;;;;3.25;1.40;;;21.50;53.30;;;;;;2330568;54;20909;-71
2022/08/03 05:03:41;;;;;;;2.78;1.30;;;21.60;53.40;;;;;;2334138;54;20940;-71
2022/08/03 05:06:08;;;;;;;2.35;1.17;;;21.60;53.50;;;;;;2341262;55;20949;-71
2022/08/03 05:08:36;;;;;;;4.32;1.60;;;21.60;53.50;;;;;;2411222;53;21711;-71
2022/08/03 05:11:02;;;;;;;2.95;1.55;;;21.50;53.50;;;;;;2336688;54;21502;-70
2022/08/03 05:13:29;;;;;;;3.05;1.60;;;21.60;53.80;;;;;;2573255;53;20933;-72
2022/08/03 05:15:56;;;;;;;2.47;1.30;;;21.60;53.80;;;;;;2315786;54;21789;-73
2022/08/03 05:18:22;;;;;;;2.95;1.55;;;21.60;53.80;;;;;;2530764;53;21847;-72
2022/08/03 05:20:49;;;;;;;2.87;1.37;;;21.60;53.90;;;;;;2344041;54;20981;-72
2022/08/03 05:23:15;;;;;;;2.90;1.42;;;21.60;53.90;;;;;;2439988;53;21004;-70
2022/08/03 05:25:41;;;;;;;3.72;1.60;;;21.60;53.90;;;;;;2316389;54;21032;-72
2022/08/03 05:28:11;;;;;;;2.55;1.50;;;21.60;54.00;;;;;;2328541;54;21012;-71
2022/08/03 05:30:38;;;;;;;4.05;1.50;;;21.70;54.20;;;;;;2326840;54;21418;-72
2022/08/03 05:33:05;;;;;;;4.03;1.65;;;21.70;54.10;;;;;;2362934;54;20928;-71
2022/08/03 05:35:31;;;;;;;2.08;1.20;;;21.70;54.30;;;;;;2341316;55;20961;-71
2022/08/03 05:38:07;;;;;;;2.65;1.45;;;21.70;54.30;;;;;;2404591;54;20964;-71
2022/08/03 05:40:34;;;;;;;3.22;1.45;;;21.70;54.70;;;;;;2339621;54;21009;-72
2022/08/03 05:43:03;;;;;;;2.60;1.23;;;21.80;54.50;;;;;;2315912;54;21219;-72
2022/08/03 05:45:29;;;;;;;2.87;1.58;;;21.80;54.60;;;;;;2331969;54;20941;-71
2022/08/03 05:47:56;;;;;;;2.78;1.50;;;21.80;54.60;;;;;;2590809;53;21710;-71
2022/08/03 05:50:22;;;;;;;3.00;1.60;;;21.90;54.80;;;;;;2344508;55;21076;-71
2022/08/03 05:56:21;;;;;;;3.03;1.62;;;21.90;55.30;;;;;;2591021;53;21667;-71
2022/08/03 05:58:48;;;;;;;2.80;1.73;;;22.00;55.10;;;;;;2352026;53;20988;-70
2022/08/03 06:01:15;;;;;;;3.08;1.73;;;22.00;55.10;;;;;;2409344;53;21076;-71
2022/08/03 06:04:12;;;;;;;2.90;1.70;;;22.10;55.20;;;;;;2555521;53;20972;-71
2022/08/03 06:06:39;;;;;;;2.70;1.70;;;22.10;55.50;;;;;;2315016;54;20924;-71
2022/08/03 06:09:05;;;;;;;2.45;1.40;;;22.20;55.10;;;;;;2533920;53;20972;-72
2022/08/03 06:11:32;;;;;;;2.67;1.60;;;22.20;55.10;;;;;;2382386;53;21036;-71
2022/08/03 06:13:58;;;;;;;2.50;1.48;;;22.30;55.20;;;;;;2590672;53;21442;-71
2022/08/03 06:16:25;;;;;;;4.20;1.62;;;22.30;55.20;;;;;;2330525;54;20937;-71
2022/08/03 06:19:37;;;;;;;2.60;1.30;;;22.30;55.20;;;;;;2565010;53;21100;-71
2022/08/03 06:22:07;;;;;;;2.53;1.37;;;22.40;55.50;;;;;;2590293;53;21762;-71
2022/08/03 06:24:34;;;;;;;2.22;1.30;;;22.50;55.20;;;;;;2314396;54;20988;-71
2022/08/03 06:27:18;;;;;;;2.50;1.30;;;22.50;55.10;;;;;;2320122;54;21009;-71
2022/08/03 06:29:45;;;;;;;2.40;1.40;;;22.60;55.40;;;;;;2586463;53;20920;-70
2022/08/03 06:32:11;;;;;;;2.75;1.50;;;22.60;55.20;;;;;;2339478;54;21878;-70
2022/08/03 06:34:39;;;;;;;3.35;2.00;;;22.70;55.40;;;;;;2337168;55;20924;-71
2022/08/03 06:37:30;;;;;;;3.45;2.00;;;22.70;55.50;;;;;;2344126;55;20972;-73
2022/08/03 06:40:09;;;;;;;4.20;1.50;;;22.80;56.20;;;;;;2334791;55;21422;-71
2022/08/03 06:42:36;;;;;;;2.87;1.75;;;22.90;55.90;;;;;;2344998;53;20945;-72
2022/08/03 06:48:31;;;;;;;3.33;1.60;;;23.00;55.90;;;;;;2317574;54;21001;-74
2022/08/03 06:50:59;;;;;;;3.25;1.92;;;23.10;55.70;;;;;;2315848;55;21592;-74
2022/08/03 06:53:25;;;;;;;2.70;1.45;;;23.20;55.90;;;;;;2315650;54;20954;-71
2022/08/03 06:55:52;;;;;;;3.15;1.90;;;23.20;55.90;;;;;;2557176;54;20990;-71
2022/08/03 06:58:20;;;;;;;3.92;1.70;;;23.30;56.00;;;;;;2320410;53;21333;-71
2022/08/03 07:00:54;;;;;;;2.83;1.52;;;23.40;56.10;;;;;;2541919;53;20943;-71
2022/08/03 07:03:22;;;;;;;3.28;1.80;;;23.40;56.30;;;;;;2322494;53;20997;-74
2022/08/03 07:05:49;;;;;;;3.35;1.77;;;23.50;56.20;;;;;;2515924;54;21098;-71
2022/08/03 07:08:16;;;;;;;3.62;1.70;;;23.60;56.20;;;;;;2332993;53;21521;-75
2022/08/03 07:10:43;;;;;;;3.70;2.05;;;23.70;56.20;;;;;;2393270;54;21044;-70
2022/08/03 07:13:10;;;;;;;3.20;1.50;;;23.70;56.20;;;;;;2308164;54;21609;-71
2022/08/03 07:15:49;;;;;;;3.55;1.80;;;23.80;56.20;;;;;;2569851;53;21003;-71
2022/08/03 07:18:16;;;;;;;2.70;1.40;;;23.90;56.50;;;;;;2314134;55;20929;-72
2022/08/03 07:20:43;;;;;;;3.17;1.83;;;24.00;56.30;;;;;;2550480;54;21098;-72
2022/08/03 07:26:31;;;;;;;3.03;1.73;;;24.10;56.80;;;;;;2350321;53;21241;-72
2022/08/03 07:29:00;;;;;;;6.68;1.73;;;24.30;56.40;;;;;;2335334;54;21655;-73
2022/08/03 07:31:27;;;;;;;3.03;1.73;;;24.40;56.60;;;;;;2453513;54;20970;-74
2022/08/03 07:33:53;;;;;;;3.15;1.87;;;24.40;56.60;;;;;;2346705;55;20966;-72
2022/08/03 07:36:20;;;;;;;3.00;1.98;;;24.60;56.80;;;;;;2373039;54;20997;-72
2022/08/03 07:38:47;;;;;;;2.85;1.60;;;24.70;56.80;;;;;;2320461;54;20974;-73
2022/08/03 07:41:17;;;;;;;3.33;1.73;;;24.80;56.80;;;;;;2384910;54;20970;-74
2022/08/03 07:43:43;;;;;;;2.72;1.50;;;24.90;56.80;;;;;;2325469;55;20982;-72
2022/08/03 07:46:10;;;;;;;2.85;1.60;;;25.00;56.80;;;;;;2340844;54;20914;-75
2022/08/03 07:48:36;;;;;;;3.12;1.58;;;25.10;56.70;;;;;;2341711;54;21518;-72
2022/08/03 07:51:36;;;;;;;3.05;1.27;;;25.30;56.60;;;;;;2351246;53;20998;-72
2022/08/03 07:54:03;;;;;;;2.28;1.12;;;25.40;56.20;;;;;;2341408;55;20953;-72
2022/08/03 07:56:29;;;;;;;3.25;1.60;;;25.50;56.10;;;;;;2333954;54;21173;-72
2022/08/03 07:58:58;;;;;;;3.83;1.65;;;25.60;55.80;;;;;;2325142;54;21015;-72
2022/08/03 08:01:25;;;;;;;3.03;1.48;;;25.80;55.80;;;;;;2344371;55;20938;-72
2022/08/03 08:03:51;;;;;;;3.20;1.70;;;25.90;55.80;;;;;;2338925;55;20926;-72
2022/08/03 08:06:20;;;;;;;3.12;1.80;;;26.00;55.70;;;;;;2590716;53;20958;-73
2022/08/03 08:08:46;;;;;;;3.00;1.70;;;26.10;55.50;;;;;;2340084;55;20945;-72
2022/08/03 08:11:14;;;;;;;2.83;1.60;;;26.20;55.50;;;;;;2400705;53;21446;-73
2022/08/03 08:13:41;;;;;;;2.67;1.67;;;26.30;55.50;;;;;;2558104;53;20942;-73
2022/08/03 08:16:08;;;;;;;3.25;1.80;;;26.40;55.60;;;;;;2328437;54;21080;-72
2022/08/03 08:18:43;;;;;;;3.12;1.50;;;26.50;55.40;;;;;;2338647;54;21757;-72
2022/08/03 08:21:09;;;;;;;2.62;1.60;;;26.60;55.30;;;;;;2344579;54;20951;-72
2022/08/03 08:23:36;;;;;;;3.22;1.70;;;26.70;55.00;;;;;;2341439;54;21560;-74
2022/08/03 08:26:05;;;;;;;3.85;1.80;;;26.80;54.80;;;;;;2474380;53;20934;-73
2022/08/03 08:28:32;;;;;;;3.45;1.77;;;26.90;54.90;;;;;;2332162;54;21077;-72
2022/08/03 08:30:59;;;;;;;2.60;1.50;;;26.90;54.60;;;;;;2577612;53;21062;-72
2022/08/03 08:33:26;;;;;;;3.22;1.70;;;27.00;54.40;;;;;;2308245;55;21034;-75
2022/08/03 08:35:56;;;;;;;2.50;1.37;;;27.10;54.30;;;;;;2563143;53;21054;-74
2022/08/03 08:38:23;;;;;;;3.92;1.77;;;27.20;54.20;;;;;;2344292;55;20922;-72
2022/08/03 08:40:57;;;;;;;3.08;1.60;;;27.30;54.00;;;;;;2339715;53;21049;-72
2022/08/03 08:43:24;;;;;;;3.33;1.33;;;27.40;53.80;;;;;;2344523;55;20918;-75
2022/08/03 08:45:51;;;;;;;3.03;1.58;;;27.40;53.90;;;;;;2565801;53;21037;-73
2022/08/03 08:48:39;;;;;;;4.45;1.80;;;27.50;53.70;;;;;;2339150;54;21032;-75
2022/08/03 08:51:06;;;;;;;3.62;1.55;;;27.60;53.00;;;;;;2528138;53;20922;-73
2022/08/03 08:53:36;;;;;;;2.92;1.73;;;27.70;53.20;;;;;;2341137;55;20915;-71
2022/08/03 08:56:03;;;;;;;3.07;2.03;;;27.80;53.30;;;;;;2591227;53;21438;-74
2022/08/03 08:58:50;;;;;;;3.00;1.60;;;27.90;53.30;;;;;;2344255;54;20926;-73
2022/08/03 09:01:18;;;;;;;4.03;1.98;;;28.00;52.80;;;;;;2389791;53;20918;-73
2022/08/03 09:03:54;;;;;;;2.47;1.40;;;28.00;52.80;;;;;;2333028;54;21040;-72
2022/08/03 09:06:22;;;;;;;3.83;1.85;;;28.10;52.50;;;;;;2344233;54;20998;-73
2022/08/03 09:08:49;;;;;;;3.42;1.87;;;28.10;52.70;;;;;;2344090;54;20938;-76
2022/08/03 09:11:21;;;;;;;3.35;1.83;;;28.20;52.80;;;;;;2457148;53;20950;-72
2022/08/03 09:13:47;;;;;;;3.15;1.60;;;28.30;52.50;;;;;;2335912;54;20946;-74
2022/08/03 09:16:18;;;;;;;3.47;1.58;;;28.40;52.50;;;;;;2570572;53;20998;-74
2022/08/03 09:18:49;;;;;;;2.95;1.50;;;28.40;52.20;;;;;;2328240;54;21039;-73
2022/08/03 09:21:23;;;;;;;2.65;1.40;;;28.50;52.30;;;;;;2375063;53;21788;-75
2022/08/03 09:23:59;;;;;;;2.65;1.40;;;28.60;52.20;;;;;;2345264;54;20947;-72
2022/08/03 09:26:49;;;;;;;3.05;1.80;;;28.60;52.10;;;;;;2338806;54;20954;-72
2022/08/03 09:29:19;;;;;;;3.00;1.73;;;28.70;52.10;;;;;;2329563;55;21025;-73
2022/08/03 09:31:45;;;;;;;3.40;1.83;;;28.80;52.10;;;;;;2587657;53;21073;-73
2022/08/03 09:34:27;;;;;;;3.00;1.75;;;28.80;52.50;;;;;;2338267;54;21031;-73
2022/08/03 09:36:53;;;;;;;3.40;1.50;;;29.00;51.90;;;;;;2328282;54;20910;-72
2022/08/03 09:39:25;;;;;;;3.25;1.58;;;29.00;51.80;;;;;;2332498;54;21508;-72
2022/08/03 09:42:16;;;;;;;2.80;1.48;;;29.10;51.80;;;;;;2580867;53;21502;-73
2022/08/03 09:44:46;;;;;;;3.28;1.40;;;29.20;51.70;;;;;;2340398;54;20922;-73
2022/08/03 09:47:36;;;;;;;3.12;1.50;;;29.30;51.60;;;;;;2341414;54;21085;-74
2022/08/03 09:50:08;;;;;;;3.22;1.60;;;29.30;51.30;;;;;;2317620;54;20947;-73
2022/08/03 09:52:36;;;;;;;2.70;1.48;;;29.40;51.00;;;;;;2346208;53;21787;-73
2022/08/03 09:55:11;;;;;;;2.50;1.50;;;29.50;51.00;;;;;;2417544;54;20926;-75
2022/08/03 09:57:39;;;;;;;2.40;1.37;;;29.60;50.60;;;;;;2503237;54;20960;-75
2022/08/03 10:00:16;;;;;;;2.50;1.20;;;29.70;50.80;;;;;;2325532;54;21040;-71
2022/08/03 10:02:43;;;;;;;2.75;1.42;;;29.80;50.50;;;;;;2545936;54;20939;-71
2022/08/03 10:05:11;;;;;;;2.67;1.65;;;29.80;50.50;;;;;;2302130;54;20985;-72
2022/08/03 10:07:47;;;;;;;2.92;1.48;;;29.90;50.50;;;;;;2555151;53;20983;-71
2022/08/03 10:10:14;;;;;;;2.40;1.48;;;29.90;50.40;;;;;;2323895;54;20951;-69
2022/08/03 10:12:41;;;;;;;2.35;1.20;;;30.00;50.70;;;;;;2512416;54;20933;-71
2022/08/03 10:15:09;;;;;;;3.97;1.77;;;30.10;50.60;;;;;;2316138;54;20929;-71
2022/08/03 10:17:36;;;;;;;3.15;1.20;;;30.20;50.40;;;;;;2576182;52;20946;-71
2022/08/03 10:20:09;;;;;;;3.15;1.50;;;30.30;50.40;;;;;;2344516;55;21831;-71
2022/08/03 10:22:35;;;;;;;2.33;1.30;;;30.30;50.10;;;;;;2536838;53;21014;-72
2022/08/03 10:25:06;;;;;;;5.40;1.33;;;30.40;49.90;;;;;;2325456;54;21004;-73
2022/08/03 10:27:37;;;;;;;7.05;1.52;;;30.50;49.80;;;;;;2438168;54;20950;-72
2022/08/03 10:30:05;;;;;;;;;;;30.50;49.50;;;;;;2342420;55;21364;-70
2022/08/03 10:32:42;;;;;;;2.25;1.05;;;30.70;49.50;;;;;;2344182;55;20075;-70
2022/08/03 10:35:13;;;;;;;2.83;1.30;;;30.80;48.80;;;;;;2341633;54;21028;-71
2022/08/03 10:37:42;;;;;;;2.43;1.20;;;30.80;48.90;;;;;;2344992;55;20966;-73
2022/08/03 10:40:14;;;;;;;2.62;1.10;;;30.90;49.00;;;;;;2344643;55;21002;-73
2022/08/03 10:42:49;;;;;;;2.65;1.50;;;31.00;48.90;;;;;;2343897;55;21097;-70
2022/08/03 10:45:22;;;;;;;2.30;1.20;;;31.00;49.10;;;;;;2344595;55;21858;-70
2022/08/03 10:47:49;;;;;;;2.40;1.10;;;31.10;48.60;;;;;;2345225;53;21002;-71
2022/08/03 10:50:16;;;;;;;2.30;1.20;;;31.10;48.70;;;;;;2342468;54;21043;-70
2022/08/03 10:52:55;;;;;;;2.30;1.30;;;31.20;48.50;;;;;;2321312;54;21434;-73
2022/08/03 11:01:55;;;;;;;2.33;1.15;;;31.40;47.80;;;;;;2343273;54;21391;-71
2022/08/03 11:04:57;;;;;;;1.80;0.90;;;31.60;47.90;;;;;;2345632;55;20938;-71
2022/08/03 11:07:25;;;;;;;;;;;31.70;46.90;;;;;;2348193;55;20977;-70
2022/08/03 11:09:52;;;;;;;2.22;0.90;;;31.70;47.40;;;;;;2344284;54;20123;-70
2022/08/03 11:12:33;;;;;;;1.75;0.80;;;31.80;47.60;;;;;;2339794;54;21050;-72
2022/08/03 11:15:30;;;;;;;2.05;1.10;;;31.90;46.40;;;;;;2336059;54;21051;-73
2022/08/03 11:18:18;;;;;;;1.45;0.73;;;31.90;46.40;;;;;;2340839;54;20974;-70
2022/08/03 11:21:28;;;;;;;2.22;1.00;;;32.00;46.30;;;;;;2320755;55;21562;-70
2022/08/03 11:23:56;;;;;;;1.65;0.80;;;32.10;46.20;;;;;;2344891;55;20982;-69
2022/08/03 11:26:24;;;;;;;2.40;1.20;;;32.10;46.40;;;;;;2339395;54;21028;-69
2022/08/03 11:28:52;;;;;;;2.37;1.10;;;32.20;46.50;;;;;;2343910;54;20946;-69
2022/08/03 11:32:00;;;;;;;1.83;0.85;;;32.30;46.50;;;;;;2341040;55;20958;-71
2022/08/03 11:34:27;;;;;;;2.30;0.90;;;32.40;45.80;;;;;;2322841;54;21015;-69
2022/08/03 11:37:22;;;;;;;1.80;0.93;;;32.40;45.80;;;;;;2344671;55;20994;-72
2022/08/03 11:39:50;;;;;;;1.67;0.95;;;32.50;45.10;;;;;;2324248;54;20930;-70
2022/08/03 11:42:59;;;;;;;2.03;0.90;;;32.60;45.20;;;;;;2341137;54;20975;-70
2022/08/03 11:45:25;;;;;;;2.53;1.10;;;32.70;44.50;;;;;;2326150;54;20947;-70
2022/08/03 11:47:54;;;;;;;1.77;0.90;;;32.70;44.90;;;;;;2340198;54;21621;-73
2022/08/03 11:50:34;;;;;;;1.83;0.77;;;32.80;44.70;;;;;;2325722;54;20930;-69
2022/08/03 11:53:00;;;;;;;4.37;0.93;;;32.90;44.00;;;;;;2344727;55;20946;-72
2022/08/03 11:55:29;;;;;;;1.62;0.80;;;32.90;44.10;;;;;;2344211;55;21077;-70
2022/08/03 11:57:59;;;;;;;1.50;0.70;;;33.00;43.70;;;;;;2339856;55;20981;-72
2022/08/03 12:00:32;;;;;;;1.70;0.70;;;33.10;43.60;;;;;;2325299;55;20990;-71
2022/08/03 12:03:12;;;;;;;1.50;0.77;;;33.10;42.90;;;;;;2513090;53;21880;-73
2022/08/03 12:06:15;;;;;;;2.03;0.85;;;33.20;42.50;;;;;;2338403;54;21005;-71
2022/08/03 12:08:43;;;;;;;1.35;0.62;;;33.30;42.40;;;;;;2322880;54;21068;-72
2022/08/03 12:11:12;;;;;;;1.83;0.70;;;33.30;42.40;;;;;;2329444;54;21093;-70
2022/08/03 12:13:44;;;;;;;2.10;0.75;;;33.40;42.40;;;;;;2341033;54;20966;-71
2022/08/03 12:16:17;;;;;;;1.17;0.60;;;33.50;41.80;;;;;;2383583;53;20946;-70
2022/08/03 12:18:45;;;;;;;2.53;0.80;;;33.50;41.30;;;;;;2558881;53;20937;-70
2022/08/03 12:21:11;;;;;;;2.00;0.65;;;33.60;41.70;;;;;;2426201;53;20942;-73
2022/08/03 12:24:00;;;;;;;1.37;0.68;;;33.60;41.80;;;;;;2323011;54;20938;-69
2022/08/03 12:26:27;;;;;;;1.67;0.85;;;33.70;41.00;;;;;;2337181;54;21006;-70
2022/08/03 12:29:21;;;;;;;2.25;0.93;;;33.70;41.60;;;;;;2340968;54;20962;-70
2022/08/03 12:31:48;;;;;;;2.03;0.70;;;33.80;40.80;;;;;;2339462;55;20978;-71
2022/08/03 12:34:15;;;;;;;1.40;0.73;;;33.90;41.10;;;;;;2330955;54;20951;-73
2022/08/03 12:36:52;;;;;;;2.17;0.70;;;33.90;40.90;;;;;;2342851;54;21363;-71
2022/08/03 12:39:22;;;;;;;1.90;0.80;;;34.00;39.70;;;;;;2344585;54;20942;-72
2022/08/03 12:41:52;;;;;;;3.05;0.93;;;34.00;39.80;;;;;;2379600;53;21909;-73
2022/08/03 12:44:28;;;;;;;1.75;0.90;;;34.10;39.80;;;;;;2382269;53;21056;-70
2022/08/03 12:46:57;;;;;;;2.00;0.80;;;34.10;39.00;;;;;;2436184;54;21055;-72
2022/08/03 12:49:24;;;;;;;1.33;0.70;;;34.20;39.30;;;;;;2338413;55;20939;-72
2022/08/03 12:52:00;;;;;;;1.73;0.85;;;34.30;39.30;;;;;;2344002;54;21017;-70
2022/08/03 12:54:30;;;;;;;1.67;0.70;;;34.30;38.90;;;;;;2347593;54;21049;-70
2022/08/03 12:57:01;;;;;;;1.70;0.80;;;34.40;39.10;;;;;;2339332;54;20986;-72
2022/08/03 12:59:35;;;;;;;1.40;0.60;;;34.40;38.50;;;;;;2339369;55;20961;-73
2022/08/03 13:02:03;;;;;;;1.75;0.70;;;34.50;38.60;;;;;;2451543;53;20945;-71
2022/08/03 13:08:19;;;;;;;1.20;0.60;;;34.60;38.40;;;;;;2591047;53;21009;-70
2022/08/03 13:10:45;;;;;;;1.58;0.65;;;34.70;38.30;;;;;;2338581;55;20922;-69
2022/08/03 13:13:12;;;;;;;2.60;0.90;;;34.80;38.60;;;;;;2344567;54;21561;-73
2022/08/03 13:15:38;;;;;;;1.35;0.70;;;34.80;38.30;;;;;;2325055;54;20970;-70
2022/08/03 13:18:05;;;;;;;1.92;0.77;;;34.90;38.30;;;;;;2587180;53;20942;-71
2022/08/03 13:21:11;;;;;;;2.08;0.80;;;34.90;38.10;;;;;;2338618;55;20978;-71
2022/08/03 13:23:55;;;;;;;1.73;0.90;;;35.00;37.30;;;;;;2565683;53;21817;-73
2022/08/03 13:26:22;;;;;;;2.85;0.90;;;35.10;37.30;;;;;;2347492;54;21899;-70
2022/08/03 13:28:49;;;;;;;2.10;0.65;;;35.10;37.80;;;;;;2338838;53;21121;-70
2022/08/03 13:31:26;;;;;;;2.28;0.82;;;35.20;37.90;;;;;;2324997;54;21146;-69
2022/08/03 13:33:52;;;;;;;2.40;0.70;;;35.30;37.60;;;;;;2304195;55;20949;-70
2022/08/03 13:36:19;;;;;;;1.52;0.70;;;35.30;37.90;;;;;;2517670;54;21664;-70
2022/08/03 13:38:46;;;;;;;1.52;0.77;;;35.40;37.60;;;;;;2374262;54;20984;-73
2022/08/03 13:41:13;;;;;;;1.15;0.65;;;35.40;37.20;;;;;;2297319;55;20985;-69
2022/08/03 13:43:39;;;;;;;1.95;0.80;;;35.40;37.00;;;;;;2374288;54;20989;-71
2022/08/03 13:46:06;;;;;;;1.77;0.80;;;35.50;36.90;;;;;;2370187;54;20953;-70
2022/08/03 13:48:33;;;;;;;2.00;0.90;;;35.50;36.80;;;;;;2411492;54;20975;-70
2022/08/03 13:50:59;;;;;;;1.60;0.80;;;35.60;36.60;;;;;;2317403;54;21007;-70
2022/08/03 13:53:49;;;;;;;1.62;0.80;;;35.70;36.70;;;;;;2509123;54;20931;-70
2022/08/03 13:56:19;;;;;;;1.48;0.73;;;35.70;36.60;;;;;;2317120;54;20939;-70
2022/08/03 13:58:45;;;;;;;1.92;0.70;;;35.80;36.10;;;;;;2409651;54;21010;-70
2022/08/03 14:01:12;;;;;;;1.60;0.73;;;35.80;36.00;;;;;;2311863;54;20975;-70
2022/08/03 14:03:39;;;;;;;1.52;0.70;;;35.90;35.90;;;;;;2323626;54;20967;-70
2022/08/03 14:06:05;;;;;;;1.85;0.70;;;35.90;35.70;;;;;;2317420;54;21528;-70
2022/08/03 14:12:15;;;;;;;1.58;0.77;;;36.00;35.00;;;;;;2553978;54;21014;-70
2022/08/03 14:14:41;;;;;;;1.80;0.73;;;36.10;35.70;;;;;;2553565;54;21051;-70
2022/08/03 14:17:08;;;;;;;1.27;0.65;;;36.10;35.50;;;;;;2312332;54;20979;-72
2022/08/03 14:19:49;;;;;;;1.42;0.60;;;36.20;35.20;;;;;;2549960;54;21769;-71